Cheatham Observed Data For Previous 48 Hours

Caption
Day and Hour Reservoir Elevation (behind dam)* Tailwater Elevation (below dam)* Average Hourly Discharge*
9/20/2017 1 AM CDT 386.12 356.46 6,400
9/20/2017 2 AM CDT 386.31 356.19 6,400
9/20/2017 3 AM CDT 386.37 356.05 6,300
9/20/2017 4 AM CDT 386.23 357.44 12,800
9/20/2017 5 AM CDT 386.10 357.62 13,000
9/20/2017 6 AM CDT 386.02 357.74 13,000
9/20/2017 7 AM CDT 385.95 357.77 13,000
9/20/2017 8 AM CDT 385.84 357.82 13,000
9/20/2017 9 AM CDT 385.77 357.87 13,000
9/20/2017 10 AM CDT 385.67 357.99 13,100
9/20/2017 11 AM CDT 385.61 357.93 13,100
9/20/2017 12 PM CDT 385.61 357.99 13,100
9/20/2017 1 PM CDT - 999.00 - 999.00 -999
9/20/2017 2 PM CDT 385.62 358.13 13,200
9/20/2017 3 PM CDT 385.60 358.22 13,200
9/20/2017 4 PM CDT 385.58 358.94 13,400
9/20/2017 5 PM CDT 385.56 358.12 13,400
9/20/2017 6 PM CDT 385.55 358.22 13,400
9/20/2017 7 PM CDT 385.56 358.16 13,200
9/20/2017 8 PM CDT 385.63 358.16 13,200
9/20/2017 9 PM CDT 385.66 358.16 13,200
9/20/2017 10 PM CDT 385.82 358.00 13,000
9/20/2017 11 PM CDT 385.91 357.94 13,000
9/21/2017 12 AM CDT 386.01 357.93 13,000
9/21/2017 1 AM CDT 386.10 357.88 13,000
9/21/2017 2 AM CDT 386.15 357.85 13,000
9/21/2017 3 AM CDT 386.11 357.93 13,000
9/21/2017 4 AM CDT 386.06 357.87 13,000
9/21/2017 5 AM CDT 385.99 357.81 13,000
9/21/2017 6 AM CDT 385.91 357.88 13,000
9/21/2017 7 AM CDT 385.82 357.92 13,000
9/21/2017 8 AM CDT 385.73 357.92 13,000
9/21/2017 9 AM CDT 385.65 357.95 13,200
9/21/2017 10 AM CDT 385.57 357.93 13,200
9/21/2017 11 AM CDT 385.73 356.69 8,500
9/21/2017 12 PM CDT 385.49 358.02 12,400
9/21/2017 1 PM CDT 385.42 357.95 13,200
9/21/2017 2 PM CDT 385.36 358.06 13,200
9/21/2017 3 PM CDT 385.33 358.09 13,200
9/21/2017 4 PM CDT 385.35 358.12 13,200
9/21/2017 5 PM CDT 385.39 358.25 13,200
9/21/2017 6 PM CDT 385.45 358.30 13,200
9/21/2017 7 PM CDT 385.54 358.28 13,200
9/21/2017 8 PM CDT 385.62 358.12 13,200
9/21/2017 9 PM CDT 385.70 358.16 13,200
9/21/2017 10 PM CDT 385.72 358.16 13,200
9/21/2017 11 PM CDT 385.88 358.17 13,200
9/22/2017 12 AM CDT 385.96 358.10 13,200

Elevations are in feet above sea level. Discharges are in cubic feet per second and are reported at the end of the hour.